createdAt,value
2017-10-27T00:01:08.046Z,0
2017-10-27T00:02:18.817Z,0
2017-10-27T00:03:29.117Z,0
2017-10-27T00:04:39.089Z,0
2017-10-27T00:05:49.398Z,0
2017-10-27T00:06:59.696Z,0
2017-10-27T00:08:10.232Z,0
2017-10-27T00:09:20.212Z,0
2017-10-27T00:10:30.508Z,0
2017-10-27T00:11:40.813Z,0
2017-10-27T00:12:50.784Z,0
2017-10-27T00:14:01.338Z,0
2017-10-27T00:15:11.626Z,0
2017-10-27T00:16:21.917Z,0
2017-10-27T00:17:32.206Z,0
2017-10-27T00:18:42.502Z,0
2017-10-27T00:19:52.725Z,0
2017-10-27T00:21:03.008Z,0
2017-10-27T00:22:13.306Z,0
2017-10-27T00:23:23.598Z,0
2017-10-27T00:24:33.559Z,0
2017-10-27T00:25:44.100Z,0
2017-10-27T00:26:54.414Z,0
2017-10-27T00:28:04.055Z,0
2017-10-27T00:29:14.342Z,0
2017-10-27T00:30:24.626Z,0
2017-10-27T00:31:35.178Z,0
2017-10-27T00:32:45.505Z,0
2017-10-27T00:33:55.805Z,0
2017-10-27T00:35:06.096Z,0
2017-10-27T00:36:16.092Z,0
2017-10-27T00:37:26.695Z,0
2017-10-27T00:38:37.001Z,0
2017-10-27T00:39:47.296Z,0
2017-10-27T00:40:58.308Z,0
2017-10-27T00:42:08.656Z,0
2017-10-27T00:43:19.194Z,0
2017-10-27T00:44:29.493Z,0
2017-10-27T00:45:39.775Z,0
2017-10-27T00:46:50.075Z,0
2017-10-27T00:48:00.387Z,0
2017-10-27T00:49:10.998Z,0
2017-10-27T00:50:20.962Z,0
2017-10-27T00:51:31.267Z,0
2017-10-27T00:52:41.565Z,0
2017-10-27T00:53:51.527Z,0
2017-10-27T00:55:01.797Z,0
2017-10-27T00:56:12.112Z,0
2017-10-27T00:57:22.094Z,0
2017-10-27T00:58:32.394Z,0
2017-10-27T00:59:42.685Z,0
2017-10-27T01:00:53.233Z,0
2017-10-27T01:02:03.212Z,0
2017-10-27T01:03:13.519Z,0
2017-10-27T01:04:23.811Z,0
2017-10-27T01:05:33.792Z,0
2017-10-27T01:06:44.339Z,0
2017-10-27T01:07:54.296Z,0
2017-10-27T01:09:04.584Z,0
2017-10-27T01:10:14.544Z,0
2017-10-27T01:11:24.846Z,0
2017-10-27T01:12:35.387Z,0
2017-10-27T01:13:45.677Z,0
2017-10-27T01:14:55.643Z,0
2017-10-27T01:16:05.944Z,0
2017-10-27T01:17:16.241Z,0
2017-10-27T01:18:26.780Z,0
2017-10-27T01:19:36.426Z,0
2017-10-27T01:20:46.736Z,0
2017-10-27T01:21:57.023Z,0
2017-10-27T01:23:07.349Z,0
2017-10-27T01:24:17.241Z,0
2017-10-27T01:25:27.539Z,0
2017-10-27T01:26:37.827Z,0
2017-10-27T01:27:47.798Z,0
2017-10-27T01:28:58.097Z,0
2017-10-27T01:30:08.645Z,0
2017-10-27T01:31:18.941Z,0
2017-10-27T01:32:29.226Z,0
2017-10-27T01:33:39.526Z,0
2017-10-27T01:34:49.807Z,0
2017-10-27T01:36:00.356Z,0
2017-10-27T01:37:10.325Z,0
2017-10-27T01:38:20.608Z,0
2017-10-27T01:39:30.411Z,0
2017-10-27T01:40:40.388Z,0
2017-10-27T01:41:50.938Z,0
2017-10-27T01:43:01.224Z,0
2017-10-27T01:44:11.528Z,0
2017-10-27T01:45:21.834Z,0
2017-10-27T01:46:32.146Z,0
2017-10-27T01:47:42.686Z,0
2017-10-27T01:48:52.653Z,0
2017-10-27T01:50:02.978Z,0
2017-10-27T01:51:13.265Z,0
2017-10-27T01:52:23.561Z,0
2017-10-27T01:53:34.113Z,0
2017-10-27T01:54:44.409Z,0
2017-10-27T01:55:54.728Z,0
2017-10-27T01:57:04.709Z,0
2017-10-27T01:58:15.036Z,0
2017-10-27T01:59:25.604Z,0
2017-10-27T02:00:35.927Z,0
2017-10-27T02:01:45.923Z,0
2017-10-27T02:02:55.906Z,0
2017-10-27T02:04:06.194Z,0
2017-10-27T02:05:16.420Z,0
2017-10-27T02:06:26.391Z,0
2017-10-27T02:07:36.362Z,0
2017-10-27T02:08:46.656Z,0
2017-10-27T02:09:56.612Z,0
2017-10-27T02:11:07.165Z,0
2017-10-27T02:12:17.460Z,0
2017-10-27T02:13:27.754Z,0
2017-10-27T02:14:38.079Z,0
2017-10-27T02:15:48.651Z,0
2017-10-27T02:16:59.198Z,0
2017-10-27T02:18:09.166Z,0
2017-10-27T02:19:19.144Z,0
2017-10-27T02:20:29.444Z,0
2017-10-27T02:21:39.729Z,0
2017-10-27T02:22:49.940Z,0
2017-10-27T02:24:00.230Z,0
2017-10-27T02:25:10.201Z,0
2017-10-27T02:26:20.172Z,0
2017-10-27T02:27:30.463Z,0
2017-10-27T02:28:40.998Z,0
2017-10-27T02:29:50.974Z,0
2017-10-27T02:31:01.302Z,0
2017-10-27T02:32:10.947Z,0
2017-10-27T02:33:21.240Z,0
2017-10-27T02:34:31.796Z,0
2017-10-27T02:35:42.082Z,0
2017-10-27T02:36:52.063Z,0
2017-10-27T02:38:02.036Z,0
2017-10-27T02:39:12.333Z,0
2017-10-27T02:40:22.575Z,0
2017-10-27T02:41:32.876Z,0
2017-10-27T02:42:42.861Z,0
2017-10-27T02:43:53.161Z,0
2017-10-27T02:45:03.165Z,0
2017-10-27T02:46:13.718Z,0
2017-10-27T02:47:24.015Z,0
2017-10-27T02:48:34.323Z,0
2017-10-27T02:49:44.628Z,0
2017-10-27T02:50:54.921Z,0
2017-10-27T02:52:05.518Z,0
2017-10-27T02:53:15.807Z,0
2017-10-27T02:54:26.127Z,0
2017-10-27T02:55:35.765Z,0
2017-10-27T02:56:46.065Z,0
2017-10-27T02:57:56.598Z,0
2017-10-27T02:59:06.587Z,0
2017-10-27T03:00:16.549Z,0
2017-10-27T03:01:26.846Z,0
2017-10-27T03:02:37.142Z,0
2017-10-27T03:03:47.756Z,0
2017-10-27T03:04:57.718Z,0
2017-10-27T03:06:07.683Z,0
2017-10-27T03:07:17.996Z,0
2017-10-27T03:08:28.296Z,0
2017-10-27T03:09:38.839Z,0
2017-10-27T03:10:48.482Z,0
2017-10-27T03:11:58.784Z,0
2017-10-27T03:13:09.068Z,0
2017-10-27T03:14:19.367Z,0
2017-10-27T03:15:29.919Z,0
2017-10-27T03:16:40.203Z,0
2017-10-27T03:17:50.481Z,0
2017-10-27T03:19:00.780Z,0
2017-10-27T03:20:10.747Z,0
2017-10-27T03:21:20.977Z,0
2017-10-27T03:22:31.283Z,0
2017-10-27T03:23:41.576Z,0
2017-10-27T03:24:51.551Z,0
2017-10-27T03:26:01.532Z,0
2017-10-27T03:27:12.079Z,0
2017-10-27T03:28:22.383Z,0
2017-10-27T03:29:32.678Z,0
2017-10-27T03:30:42.972Z,0
2017-10-27T03:31:53.266Z,0
2017-10-27T03:33:03.804Z,0
2017-10-27T03:34:14.092Z,0
2017-10-27T03:35:24.388Z,0
2017-10-27T03:36:34.677Z,0
2017-10-27T03:37:44.643Z,0
2017-10-27T03:38:54.859Z,0
2017-10-27T03:40:05.158Z,0
2017-10-27T03:41:15.457Z,0
2017-10-27T03:42:25.746Z,0
2017-10-27T03:43:36.045Z,0
2017-10-27T03:44:46.586Z,0
2017-10-27T03:45:56.887Z,0
2017-10-27T03:47:06.888Z,0
2017-10-27T03:48:17.167Z,0
2017-10-27T03:49:27.137Z,0
2017-10-27T03:50:37.689Z,0
2017-10-27T03:51:47.985Z,0
2017-10-27T03:52:58.276Z,0
2017-10-27T03:54:08.572Z,0
2017-10-27T03:55:18.862Z,0
2017-10-27T03:56:29.126Z,0
2017-10-27T03:57:39.103Z,0
2017-10-27T03:58:49.409Z,0
2017-10-27T03:59:59.698Z,0
2017-10-27T04:01:10.008Z,0
2017-10-27T04:02:20.566Z,0
2017-10-27T04:03:30.859Z,0
2017-10-27T04:04:41.163Z,0
2017-10-27T04:05:50.798Z,0
2017-10-27T04:07:00.755Z,0
2017-10-27T04:08:11.321Z,0
2017-10-27T04:09:21.637Z,0
2017-10-27T04:10:31.956Z,0
2017-10-27T04:11:42.246Z,0
2017-10-27T04:12:52.214Z,0
2017-10-27T04:14:02.423Z,0
2017-10-27T04:15:12.721Z,0
2017-10-27T04:16:23.019Z,0
2017-10-27T04:17:32.326Z,0
2017-10-27T04:18:42.622Z,0
2017-10-27T04:19:53.177Z,0
2017-10-27T04:21:03.171Z,0
2017-10-27T04:22:13.474Z,0
2017-10-27T04:23:23.772Z,0
2017-10-27T04:24:34.069Z,0
2017-10-27T04:25:44.316Z,0
2017-10-27T04:26:54.618Z,0
2017-10-27T04:28:04.910Z,0
2017-10-27T04:29:14.870Z,0
2017-10-27T04:30:25.166Z,0
2017-10-27T04:31:35.754Z,0
2017-10-27T04:32:46.044Z,0
2017-10-27T04:33:55.705Z,0
2017-10-27T04:35:05.687Z,0
2017-10-27T04:36:15.337Z,0
2017-10-27T04:37:25.890Z,0
2017-10-27T04:38:36.180Z,0
2017-10-27T04:39:46.158Z,0
2017-10-27T04:40:56.445Z,0
2017-10-27T04:42:06.418Z,0
2017-10-27T04:43:17.006Z,0
2017-10-27T04:44:27.319Z,0
2017-10-27T04:45:37.609Z,0
2017-10-27T04:46:47.897Z,0
2017-10-27T04:47:57.860Z,0
2017-10-27T04:49:08.404Z,0
2017-10-27T04:50:18.713Z,0
2017-10-27T04:51:28.683Z,0
2017-10-27T04:52:38.663Z,0
2017-10-27T04:53:48.639Z,0
2017-10-27T04:54:59.181Z,0
2017-10-27T04:56:09.478Z,0
2017-10-27T04:57:19.774Z,0
2017-10-27T04:58:30.073Z,0
2017-10-27T04:59:40.352Z,0
2017-10-27T05:00:50.561Z,0
2017-10-27T05:02:00.195Z,0
2017-10-27T05:03:10.505Z,0
2017-10-27T05:04:20.471Z,0
2017-10-27T05:05:30.768Z,0
2017-10-27T05:06:41.304Z,0
2017-10-27T05:07:51.269Z,0
2017-10-27T05:09:01.241Z,0
2017-10-27T05:10:11.534Z,0
2017-10-27T05:11:21.495Z,0
2017-10-27T05:12:31.704Z,0
2017-10-27T05:13:41.392Z,0
2017-10-27T05:14:51.693Z,0
2017-10-27T05:16:01.662Z,0
2017-10-27T05:17:11.629Z,0
2017-10-27T05:18:22.165Z,0
2017-10-27T05:19:32.464Z,0
2017-10-27T05:20:42.762Z,0
2017-10-27T05:21:53.076Z,0
2017-10-27T05:23:03.060Z,0
2017-10-27T05:24:13.608Z,0
2017-10-27T05:25:23.914Z,0
2017-10-27T05:26:33.899Z,0
2017-10-27T05:27:43.874Z,0
2017-10-27T05:28:53.883Z,0
2017-10-27T05:30:04.451Z,0
2017-10-27T05:31:14.742Z,0
2017-10-27T05:32:24.408Z,0
2017-10-27T05:33:34.372Z,0
2017-10-27T05:34:44.669Z,0
2017-10-27T05:35:55.219Z,0
2017-10-27T05:37:05.523Z,0
2017-10-27T05:38:15.489Z,0
2017-10-27T05:39:25.799Z,0
2017-10-27T05:40:35.766Z,0
2017-10-27T05:41:46.300Z,0
2017-10-27T05:42:56.598Z,0
2017-10-27T05:44:06.900Z,5
2017-10-27T05:45:17.193Z,5
2017-10-27T05:46:27.168Z,5
2017-10-27T05:47:37.749Z,5
2017-10-27T05:48:48.042Z,5
2017-10-27T05:49:58.033Z,5
2017-10-27T05:51:08.337Z,5
2017-10-27T05:52:18.626Z,5
2017-10-27T05:53:29.173Z,10
2017-10-27T05:54:39.479Z,10
2017-10-27T05:55:49.789Z,10
2017-10-27T05:57:00.089Z,10
2017-10-27T05:58:10.393Z,10
2017-10-27T05:59:20.948Z,15
2017-10-27T06:00:30.910Z,15
2017-10-27T06:01:41.195Z,20
2017-10-27T06:02:51.164Z,20
2017-10-27T06:04:01.452Z,20
2017-10-27T06:05:12.056Z,25
2017-10-27T06:06:22.370Z,25
2017-10-27T06:07:32.671Z,25
2017-10-27T06:08:42.963Z,25
2017-10-27T06:09:53.262Z,25
2017-10-27T06:11:03.485Z,25
2017-10-27T06:12:13.774Z,25
2017-10-27T06:13:24.071Z,20
2017-10-27T06:14:34.052Z,20
2017-10-27T06:15:44.352Z,20
2017-10-27T06:16:54.916Z,25
2017-10-27T06:18:04.877Z,25
2017-10-27T06:19:15.175Z,30
2017-10-27T06:20:25.697Z,30
2017-10-27T06:21:35.994Z,30
2017-10-27T06:22:45.895Z,30
2017-10-27T06:23:55.896Z,35
2017-10-27T06:25:05.891Z,40
2017-10-27T06:26:15.855Z,45
2017-10-27T06:27:25.829Z,55
2017-10-27T06:28:36.376Z,60
2017-10-27T06:29:46.679Z,65
2017-10-27T06:30:56.982Z,50
2017-10-27T06:32:07.168Z,45
2017-10-27T06:33:17.481Z,50
2017-10-27T06:34:27.725Z,55
2017-10-27T06:35:38.024Z,50
2017-10-27T06:36:47.984Z,60
2017-10-27T06:37:57.963Z,75
2017-10-27T06:39:07.929Z,70
2017-10-27T06:40:18.181Z,55
2017-10-27T06:41:28.500Z,50
2017-10-27T06:42:38.477Z,40
2017-10-27T06:43:48.444Z,35
2017-10-27T06:44:58.413Z,30
2017-10-27T06:46:08.623Z,35
2017-10-27T06:47:18.596Z,40
2017-10-27T06:48:28.558Z,55
2017-10-27T06:49:38.853Z,65
2017-10-27T06:50:48.171Z,70
2017-10-27T06:51:58.744Z,85
2017-10-27T06:53:08.720Z,90
2017-10-27T06:54:19.033Z,115
2017-10-27T06:55:29.328Z,160
2017-10-27T06:56:39.624Z,170
2017-10-27T06:57:50.189Z,150
2017-10-27T06:59:00.154Z,140
2017-10-27T07:00:10.134Z,140
2017-10-27T07:01:20.420Z,130
2017-10-27T07:02:30.721Z,85
2017-10-27T07:03:40.929Z,90
2017-10-27T07:04:50.907Z,115
2017-10-27T07:06:00.893Z,130
2017-10-27T07:07:11.209Z,145
2017-10-27T07:08:21.512Z,150
2017-10-27T07:09:32.066Z,150
2017-10-27T07:10:42.356Z,155
2017-10-27T07:11:52.640Z,160
2017-10-27T07:13:02.601Z,165
2017-10-27T07:14:12.924Z,180
2017-10-27T07:15:23.474Z,185
2017-10-27T07:16:33.760Z,185
2017-10-27T07:17:44.060Z,190
2017-10-27T07:18:54.038Z,195
2017-10-27T07:20:04.362Z,195
2017-10-27T07:21:14.902Z,205
2017-10-27T07:22:25.203Z,205
2017-10-27T07:23:35.502Z,210
2017-10-27T07:24:45.471Z,215
2017-10-27T07:25:55.762Z,220
2017-10-27T07:27:05.985Z,245
2017-10-27T07:28:16.280Z,300
2017-10-27T07:29:26.589Z,325
2017-10-27T07:30:36.556Z,285
2017-10-27T07:31:46.850Z,275
2017-10-27T07:32:57.438Z,255
2017-10-27T07:34:07.734Z,240
2017-10-27T07:35:18.049Z,240
2017-10-27T07:36:28.021Z,190
2017-10-27T07:37:38.318Z,145
2017-10-27T07:38:48.915Z,150
2017-10-27T07:39:59.239Z,130
2017-10-27T07:41:09.546Z,125
2017-10-27T07:42:19.855Z,145
2017-10-27T07:43:30.149Z,120
2017-10-27T07:44:40.725Z,100
2017-10-27T07:45:50.684Z,100
2017-10-27T07:47:01.022Z,130
2017-10-27T07:48:10.999Z,155
2017-10-27T07:49:20.967Z,195
2017-10-27T07:50:31.508Z,205
2017-10-27T07:51:41.813Z,190
2017-10-27T07:52:52.122Z,180
2017-10-27T07:54:02.447Z,160
2017-10-27T07:55:12.439Z,185
2017-10-27T07:56:22.998Z,195
2017-10-27T07:57:33.295Z,195
2017-10-27T07:58:43.618Z,210
2017-10-27T07:59:53.917Z,230
2017-10-27T08:01:04.232Z,205
2017-10-27T08:02:14.793Z,185
2017-10-27T08:03:24.783Z,220
2017-10-27T08:04:35.086Z,275
2017-10-27T08:05:45.372Z,300
2017-10-27T08:06:55.685Z,300
2017-10-27T08:08:06.239Z,270
2017-10-27T08:09:16.544Z,260
2017-10-27T08:10:26.865Z,285
2017-10-27T08:11:37.191Z,260
2017-10-27T08:12:47.159Z,245
2017-10-27T08:13:57.706Z,255
2017-10-27T08:15:07.676Z,250
2017-10-27T08:16:17.989Z,160
2017-10-27T08:17:28.292Z,170
2017-10-27T08:18:38.596Z,215
2017-10-27T08:19:49.162Z,215
2017-10-27T08:20:59.518Z,185
2017-10-27T08:22:09.824Z,180
2017-10-27T08:23:19.805Z,155
2017-10-27T08:24:30.110Z,145
2017-10-27T08:25:40.658Z,155
2017-10-27T08:26:50.963Z,200
2017-10-27T08:28:01.279Z,220
2017-10-27T08:29:11.261Z,230
2017-10-27T08:30:21.239Z,235
2017-10-27T08:31:31.799Z,260
2017-10-27T08:32:42.097Z,250
2017-10-27T08:33:52.073Z,250
2017-10-27T08:35:02.382Z,270
2017-10-27T08:36:12.679Z,280
2017-10-27T08:37:22.887Z,290
2017-10-27T08:38:32.560Z,285
2017-10-27T08:39:42.854Z,255
2017-10-27T08:40:52.833Z,245
2017-10-27T08:42:02.801Z,290
2017-10-27T08:43:13.343Z,315
2017-10-27T08:44:23.640Z,345
2017-10-27T08:45:33.938Z,340
2017-10-27T08:46:44.242Z,375
2017-10-27T08:47:54.540Z,385
2017-10-27T08:49:05.079Z,410
2017-10-27T08:50:15.055Z,470
2017-10-27T08:51:25.395Z,480
2017-10-27T08:52:35.712Z,615
2017-10-27T08:53:46.004Z,615
2017-10-27T08:54:56.600Z,595
2017-10-27T08:56:06.900Z,725
2017-10-27T08:57:17.195Z,565
2017-10-27T08:58:27.198Z,525
2017-10-27T08:59:37.178Z,395
2017-10-27T09:00:47.432Z,370
2017-10-27T09:01:57.087Z,460
2017-10-27T09:03:07.421Z,365
2017-10-27T09:04:17.403Z,300
2017-10-27T09:05:27.707Z,340
2017-10-27T09:06:37.933Z,345
2017-10-27T09:07:48.237Z,400
2017-10-27T09:08:58.572Z,335
2017-10-27T09:10:08.872Z,305
2017-10-27T09:11:19.209Z,310
2017-10-27T09:12:29.474Z,470
2017-10-27T09:13:39.123Z,545
2017-10-27T09:14:49.435Z,465
2017-10-27T09:15:59.747Z,270
2017-10-27T09:17:10.081Z,280
2017-10-27T09:18:20.687Z,305
2017-10-27T09:19:30.995Z,465
2017-10-27T09:20:41.294Z,750
2017-10-27T09:21:51.265Z,945
2017-10-27T09:23:01.265Z,560
2017-10-27T09:24:11.817Z,525
2017-10-27T09:25:22.111Z,485
2017-10-27T09:26:32.104Z,400
2017-10-27T09:27:42.077Z,335
2017-10-27T09:28:52.376Z,285
2017-10-27T09:30:02.900Z,270
2017-10-27T09:31:13.248Z,270
2017-10-27T09:32:23.225Z,240
2017-10-27T09:33:33.507Z,220
2017-10-27T09:34:43.468Z,195
2017-10-27T09:35:54.030Z,130
2017-10-27T09:37:04.345Z,100
2017-10-27T09:38:14.638Z,75
2017-10-27T09:39:24.608Z,75
2017-10-27T09:40:34.905Z,75
2017-10-27T09:41:45.466Z,110
2017-10-27T09:42:55.453Z,145
2017-10-27T09:44:05.437Z,160
2017-10-27T09:45:15.073Z,165
2017-10-27T09:46:24.735Z,160
2017-10-27T09:47:35.296Z,180
2017-10-27T09:48:45.602Z,210
2017-10-27T09:49:55.253Z,300
2017-10-27T09:51:05.233Z,320
2017-10-27T09:52:15.558Z,240
2017-10-27T09:53:25.794Z,220
2017-10-27T09:54:36.087Z,205
2017-10-27T09:55:46.069Z,220
2017-10-27T09:56:56.386Z,295
2017-10-27T09:58:06.681Z,390
2017-10-27T09:59:17.231Z,385
2017-10-27T10:00:27.209Z,410
2017-10-27T10:01:37.183Z,465
2017-10-27T10:02:47.484Z,440
2017-10-27T10:03:57.782Z,440
2017-10-27T10:05:08.358Z,345
2017-10-27T10:06:18.669Z,285
2017-10-27T10:07:28.973Z,380
2017-10-27T10:08:39.272Z,370
2017-10-27T10:09:49.573Z,390
2017-10-27T10:11:00.123Z,410
2017-10-27T10:12:10.466Z,280
2017-10-27T10:13:20.767Z,240
2017-10-27T10:14:31.067Z,200
2017-10-27T10:15:41.057Z,205
2017-10-27T10:16:51.611Z,245
2017-10-27T10:18:01.583Z,445
2017-10-27T10:19:11.565Z,620
2017-10-27T10:20:21.850Z,705
2017-10-27T10:21:31.816Z,555
2017-10-27T10:22:42.379Z,290
2017-10-27T10:23:52.705Z,200
2017-10-27T10:25:03.034Z,160
2017-10-27T10:26:13.003Z,120
2017-10-27T10:27:23.313Z,125
2017-10-27T10:28:33.906Z,160
2017-10-27T10:29:44.221Z,215
2017-10-27T10:30:54.515Z,175
2017-10-27T10:32:04.812Z,205
2017-10-27T10:33:15.114Z,220
2017-10-27T10:34:25.682Z,175
2017-10-27T10:35:35.650Z,165
2017-10-27T10:36:45.940Z,215
2017-10-27T10:37:55.905Z,265
2017-10-27T10:39:06.216Z,220
2017-10-27T10:40:16.758Z,205
2017-10-27T10:41:27.080Z,160
2017-10-27T10:42:37.068Z,160
2017-10-27T10:43:47.358Z,195
2017-10-27T10:44:57.689Z,215
2017-10-27T10:46:07.901Z,230
2017-10-27T10:47:18.215Z,280
2017-10-27T10:48:28.504Z,390
2017-10-27T10:49:38.484Z,385
2017-10-27T10:50:48.140Z,400
2017-10-27T10:51:58.700Z,375
2017-10-27T10:53:09.017Z,360
2017-10-27T10:54:18.705Z,335
2017-10-27T10:55:29.019Z,355
2017-10-27T10:56:38.671Z,350
2017-10-27T10:57:48.911Z,300
2017-10-27T10:58:59.199Z,300
2017-10-27T11:00:08.854Z,355
2017-10-27T11:01:19.177Z,370
2017-10-27T11:02:29.200Z,370
2017-10-27T11:03:39.418Z,375
2017-10-27T11:04:49.718Z,420
2017-10-27T11:05:59.996Z,520
2017-10-27T11:07:10.302Z,700
2017-10-27T11:08:20.613Z,740
2017-10-27T11:09:31.174Z,585
2017-10-27T11:10:41.492Z,835
2017-10-27T11:11:51.786Z,755
2017-10-27T11:13:02.093Z,920
2017-10-27T11:14:12.386Z,1225
2017-10-27T11:15:22.671Z,800
2017-10-27T11:16:32.980Z,695
2017-10-27T11:17:43.271Z,810
2017-10-27T11:18:53.572Z,1075
2017-10-27T11:20:03.858Z,1155
2017-10-27T11:21:14.447Z,1510
2017-10-27T11:22:24.099Z,2680
2017-10-27T11:23:34.418Z,2835
2017-10-27T11:24:44.076Z,2795
2017-10-27T11:25:54.367Z,900
2017-10-27T11:27:04.918Z,630
2017-10-27T11:28:15.239Z,590
2017-10-27T11:29:25.208Z,520
2017-10-27T11:30:35.537Z,630
2017-10-27T11:31:45.830Z,650
2017-10-27T11:32:56.050Z,655
2017-10-27T11:34:06.378Z,725
2017-10-27T11:35:16.683Z,815
2017-10-27T11:36:26.986Z,680
2017-10-27T11:37:37.304Z,590
2017-10-27T11:38:47.522Z,550
2017-10-27T11:39:57.513Z,845
2017-10-27T11:41:07.823Z,765
2017-10-27T11:42:17.794Z,725
2017-10-27T11:43:27.765Z,690
2017-10-27T11:44:37.987Z,645
2017-10-27T11:45:47.978Z,605
2017-10-27T11:46:58.282Z,545
2017-10-27T11:48:08.587Z,475
2017-10-27T11:49:18.887Z,455
2017-10-27T11:50:29.454Z,485
2017-10-27T11:51:39.762Z,500
2017-10-27T11:52:50.056Z,525
2017-10-27T11:54:00.356Z,790
2017-10-27T11:55:10.324Z,795
2017-10-27T11:56:20.562Z,560
2017-10-27T11:57:30.868Z,455
2017-10-27T11:58:41.182Z,380
2017-10-27T11:59:51.182Z,360
2017-10-27T12:01:01.484Z,310
2017-10-27T12:02:12.045Z,290
2017-10-27T12:03:22.016Z,260
2017-10-27T12:04:32.324Z,340
2017-10-27T12:05:42.283Z,445
2017-10-27T12:06:52.265Z,455
2017-10-27T12:08:02.836Z,515
2017-10-27T12:09:13.159Z,510
2017-10-27T12:10:23.458Z,455
2017-10-27T12:11:33.766Z,435
2017-10-27T12:12:44.331Z,490
2017-10-27T12:13:54.881Z,550
2017-10-27T12:15:04.846Z,555
2017-10-27T12:16:14.814Z,345
2017-10-27T12:17:25.135Z,305
2017-10-27T12:18:35.441Z,270
2017-10-27T12:19:45.986Z,285
2017-10-27T12:20:56.283Z,335
2017-10-27T12:22:06.577Z,380
2017-10-27T12:23:16.877Z,445
2017-10-27T12:24:27.200Z,485
2017-10-27T12:25:37.423Z,500
2017-10-27T12:26:47.068Z,665
2017-10-27T12:27:57.362Z,545
2017-10-27T12:29:07.349Z,490
2017-10-27T12:30:17.643Z,530
2017-10-27T12:31:28.180Z,810
2017-10-27T12:32:38.478Z,515
2017-10-27T12:33:48.803Z,480
2017-10-27T12:34:58.783Z,770
2017-10-27T12:36:09.077Z,840
2017-10-27T12:37:19.685Z,415
2017-10-27T12:38:29.662Z,340
2017-10-27T12:39:39.965Z,265
2017-10-27T12:40:49.944Z,290
2017-10-27T12:42:00.247Z,350
2017-10-27T12:43:10.786Z,440
2017-10-27T12:44:20.771Z,555
2017-10-27T12:45:30.766Z,500
2017-10-27T12:46:41.081Z,475
2017-10-27T12:47:51.384Z,260
2017-10-27T12:49:01.931Z,210
2017-10-27T12:50:11.915Z,225
2017-10-27T12:51:22.239Z,230
2017-10-27T12:52:32.529Z,195
2017-10-27T12:53:42.845Z,180
2017-10-27T12:54:53.384Z,190
2017-10-27T12:56:03.684Z,220
2017-10-27T12:57:13.652Z,205
2017-10-27T12:58:23.953Z,175
2017-10-27T12:59:33.917Z,175
2017-10-27T13:00:44.461Z,170
2017-10-27T13:01:54.769Z,150
2017-10-27T13:03:05.069Z,140
2017-10-27T13:04:15.042Z,140
2017-10-27T13:05:25.358Z,125
2017-10-27T13:06:35.920Z,120
2017-10-27T13:07:45.887Z,140
2017-10-27T13:08:55.855Z,125
2017-10-27T13:10:06.144Z,100
2017-10-27T13:11:16.433Z,80
2017-10-27T13:12:27.056Z,70
2017-10-27T13:13:37.362Z,70
2017-10-27T13:14:47.655Z,75
2017-10-27T13:15:57.960Z,65
2017-10-27T13:17:07.932Z,65
2017-10-27T13:18:18.168Z,70
2017-10-27T13:19:28.157Z,80
2017-10-27T13:20:38.465Z,90
2017-10-27T13:21:48.768Z,105
2017-10-27T13:22:58.737Z,110
2017-10-27T13:24:08.312Z,120
2017-10-27T13:25:18.283Z,125
2017-10-27T13:26:28.280Z,130
2017-10-27T13:27:38.571Z,125
2017-10-27T13:28:48.876Z,115
2017-10-27T13:29:59.436Z,105
2017-10-27T13:31:09.774Z,120
2017-10-27T13:32:20.081Z,180
2017-10-27T13:33:29.724Z,280
2017-10-27T13:34:40.009Z,380
2017-10-27T13:35:50.562Z,370
2017-10-27T13:37:00.550Z,330
2017-10-27T13:38:10.843Z,285
2017-10-27T13:39:20.823Z,265
2017-10-27T13:40:30.796Z,245
2017-10-27T13:41:41.374Z,225
2017-10-27T13:42:51.680Z,200
2017-10-27T13:44:01.322Z,180
2017-10-27T13:45:11.293Z,170
2017-10-27T13:46:21.601Z,155
2017-10-27T13:47:32.163Z,135
2017-10-27T13:48:42.468Z,105
2017-10-27T13:49:52.447Z,85
2017-10-27T13:51:02.096Z,80
2017-10-27T13:52:12.398Z,85
2017-10-27T13:53:22.934Z,100
2017-10-27T13:54:32.903Z,115
2017-10-27T13:55:43.229Z,125
2017-10-27T13:56:53.534Z,140
2017-10-27T13:58:03.495Z,155
2017-10-27T13:59:13.721Z,170
2017-10-27T14:00:24.024Z,180
2017-10-27T14:01:34.336Z,195
2017-10-27T14:02:44.637Z,210
2017-10-27T14:03:54.601Z,165
2017-10-27T14:05:05.174Z,110
2017-10-27T14:06:15.168Z,120
2017-10-27T14:07:25.456Z,150
2017-10-27T14:08:35.746Z,155
2017-10-27T14:09:45.384Z,145
2017-10-27T14:10:55.616Z,135
2017-10-27T14:12:05.594Z,135
2017-10-27T14:13:15.907Z,135
2017-10-27T14:14:26.208Z,130
2017-10-27T14:15:36.177Z,115
2017-10-27T14:16:46.744Z,110
2017-10-27T14:17:57.043Z,125
2017-10-27T14:19:07.343Z,140
2017-10-27T14:20:17.316Z,145
2017-10-27T14:21:27.307Z,75
2017-10-27T14:22:37.875Z,55
2017-10-27T14:23:48.180Z,40
2017-10-27T14:24:58.499Z,25
2017-10-27T14:26:08.798Z,30
2017-10-27T14:27:18.760Z,30
2017-10-27T14:28:28.975Z,35
2017-10-27T14:29:39.271Z,30
2017-10-27T14:30:49.565Z,30
2017-10-27T14:31:59.210Z,30
2017-10-27T14:33:09.187Z,35
2017-10-27T14:34:19.419Z,45
2017-10-27T14:35:29.404Z,55
2017-10-27T14:36:39.044Z,50
2017-10-27T14:37:49.345Z,40
2017-10-27T14:38:59.322Z,40
2017-10-27T14:40:09.875Z,65
2017-10-27T14:41:20.201Z,70
2017-10-27T14:42:30.494Z,100
2017-10-27T14:43:40.467Z,115
2017-10-27T14:44:50.427Z,730
2017-10-27T14:46:00.983Z,510
2017-10-27T14:47:10.640Z,250
2017-10-27T14:48:20.941Z,545
2017-10-27T14:49:30.584Z,340
2017-10-27T14:50:40.555Z,370
2017-10-27T14:51:50.771Z,310
2017-10-27T14:53:01.086Z,275
2017-10-27T14:54:11.393Z,235
2017-10-27T14:55:21.691Z,205
2017-10-27T14:56:32.003Z,165
2017-10-27T14:57:42.537Z,155
2017-10-27T14:58:52.842Z,160
2017-10-27T15:00:03.140Z,170
2017-10-27T15:01:12.804Z,160
2017-10-27T15:02:23.122Z,155
2017-10-27T15:03:33.676Z,155
2017-10-27T15:04:43.966Z,145
2017-10-27T15:05:54.262Z,150
2017-10-27T15:07:04.579Z,150
2017-10-27T15:08:14.880Z,140
2017-10-27T15:09:25.430Z,140
2017-10-27T15:10:35.733Z,130
2017-10-27T15:11:45.704Z,125
2017-10-27T15:12:55.674Z,115
2017-10-27T15:14:05.980Z,110
2017-10-27T15:15:16.518Z,105
2017-10-27T15:16:26.807Z,100
2017-10-27T15:17:37.126Z,95
2017-10-27T15:18:47.419Z,90
2017-10-27T15:19:57.708Z,85
2017-10-27T15:21:07.941Z,85
2017-10-27T15:22:18.242Z,85
2017-10-27T15:23:28.204Z,80
2017-10-27T15:24:38.507Z,75
2017-10-27T15:25:48.818Z,70
2017-10-27T15:26:59.027Z,65
2017-10-27T15:28:09.323Z,65
2017-10-27T15:29:19.630Z,60
2017-10-27T15:30:29.608Z,60
2017-10-27T15:31:39.580Z,55
2017-10-27T15:32:50.176Z,55
2017-10-27T15:34:00.471Z,50
2017-10-27T15:35:10.785Z,50
2017-10-27T15:36:21.089Z,45
2017-10-27T15:37:31.401Z,45
2017-10-27T15:38:41.631Z,40
2017-10-27T15:39:51.269Z,40
2017-10-27T15:41:01.247Z,35
2017-10-27T15:42:11.219Z,30
2017-10-27T15:43:21.225Z,30
2017-10-27T15:44:31.794Z,25
2017-10-27T15:45:41.753Z,25
2017-10-27T15:46:51.733Z,20
2017-10-27T15:48:01.720Z,20
2017-10-27T15:49:12.017Z,15
2017-10-27T15:50:22.250Z,15
2017-10-27T15:51:32.222Z,15
2017-10-27T15:52:42.515Z,10
2017-10-27T15:53:52.833Z,10
2017-10-27T15:55:03.159Z,5
2017-10-27T15:56:13.952Z,5
2017-10-27T15:57:24.251Z,5
2017-10-27T15:58:34.539Z,5
2017-10-27T15:59:44.845Z,5
2017-10-27T16:00:55.143Z,5
2017-10-27T16:02:05.049Z,0
2017-10-27T16:03:15.345Z,0
2017-10-27T16:04:25.643Z,0
2017-10-27T16:05:35.315Z,0
2017-10-27T16:06:45.282Z,0
2017-10-27T16:07:55.835Z,0
2017-10-27T16:09:06.122Z,0
2017-10-27T16:10:16.101Z,0
2017-10-27T16:11:26.071Z,0
2017-10-27T16:12:36.358Z,0
2017-10-27T16:13:46.908Z,0
2017-10-27T16:14:56.875Z,0
2017-10-27T16:16:06.861Z,0
2017-10-27T16:17:17.176Z,0
2017-10-27T16:18:27.484Z,0
2017-10-27T16:19:37.717Z,0
2017-10-27T16:20:48.051Z,0
2017-10-27T16:21:58.333Z,0
2017-10-27T16:23:08.308Z,0
2017-10-27T16:24:18.608Z,0
2017-10-27T16:25:29.169Z,0
2017-10-27T16:26:39.473Z,0
2017-10-27T16:27:49.777Z,0
2017-10-27T16:28:59.434Z,0
2017-10-27T16:30:09.396Z,0
2017-10-27T16:31:19.952Z,0
2017-10-27T16:32:29.911Z,0
2017-10-27T16:33:40.209Z,0
2017-10-27T16:34:50.505Z,0
2017-10-27T16:36:00.817Z,0
2017-10-27T16:37:11.050Z,0
2017-10-27T16:38:21.019Z,0
2017-10-27T16:39:30.997Z,0